createdAt,value
2018-09-26T00:03:06.257Z,1.07
2018-09-26T00:08:01.067Z,1.20
2018-09-26T00:12:55.878Z,1.20
2018-09-26T00:17:50.734Z,1.20
2018-09-26T00:22:45.541Z,1.20
2018-09-26T00:27:40.345Z,1.23
2018-09-26T00:32:35.141Z,1.00
2018-09-26T00:37:29.887Z,1.10
2018-09-26T00:42:24.699Z,1.07
2018-09-26T00:47:19.461Z,0.90
2018-09-26T00:52:14.328Z,0.87
2018-09-26T00:57:09.153Z,0.90
2018-09-26T01:02:03.923Z,1.53
2018-09-26T01:06:58.733Z,1.40
2018-09-26T01:11:53.544Z,1.00
2018-09-26T01:16:48.368Z,1.00
2018-09-26T01:21:43.172Z,0.97
2018-09-26T01:26:37.930Z,1.10
2018-09-26T01:31:32.723Z,1.10
2018-09-26T01:36:27.538Z,1.07
2018-09-26T01:41:22.329Z,1.03
2018-09-26T01:46:17.089Z,1.00
2018-09-26T01:51:11.861Z,1.13
2018-09-26T01:56:06.718Z,1.20
2018-09-26T02:01:01.496Z,1.17
2018-09-26T02:05:56.290Z,1.03
2018-09-26T02:10:51.077Z,1.10
2018-09-26T02:15:45.904Z,1.27
2018-09-26T02:20:40.681Z,1.13
2018-09-26T02:25:35.421Z,1.10
2018-09-26T02:30:30.220Z,1.20
2018-09-26T02:35:25.019Z,1.10
2018-09-26T02:40:19.827Z,1.10
2018-09-26T02:45:14.602Z,1.20
2018-09-26T02:50:09.653Z,0.90
2018-09-26T02:55:04.649Z,1.10
2018-09-26T02:59:59.444Z,1.30
2018-09-26T03:04:54.216Z,0.90
2018-09-26T03:09:49.034Z,1.10
2018-09-26T03:14:43.849Z,1.10
2018-09-26T03:19:38.601Z,0.90
2018-09-26T03:24:33.380Z,0.73
2018-09-26T03:29:28.206Z,1.03
2018-09-26T03:34:22.935Z,0.90
2018-09-26T03:39:17.709Z,1.10
2018-09-26T03:44:12.502Z,1.00
2018-09-26T03:49:07.288Z,0.93
2018-09-26T03:54:02.102Z,0.93
2018-09-26T03:58:56.966Z,0.90
2018-09-26T04:03:51.721Z,1.23
2018-09-26T04:08:46.554Z,0.90
2018-09-26T04:13:41.350Z,1.10
2018-09-26T04:18:36.145Z,1.10
2018-09-26T04:23:30.911Z,1.23
2018-09-26T04:28:25.724Z,1.10
2018-09-26T04:33:20.657Z,1.20
2018-09-26T04:38:15.329Z,1.40
2018-09-26T04:43:10.122Z,1.00
2018-09-26T04:48:04.937Z,1.40
2018-09-26T04:52:59.745Z,1.10
2018-09-26T04:57:54.576Z,1.00
2018-09-26T05:02:49.414Z,1.10
2018-09-26T05:07:44.261Z,1.10
2018-09-26T05:12:39.044Z,0.97
2018-09-26T05:17:34.117Z,1.20
2018-09-26T05:22:28.894Z,1.30
2018-09-26T05:27:23.721Z,1.27
2018-09-26T05:32:18.489Z,1.20
2018-09-26T05:37:13.574Z,1.23
2018-09-26T05:42:08.425Z,1.30
2018-09-26T05:47:03.239Z,1.40
2018-09-26T05:51:58.021Z,1.70
2018-09-26T05:56:52.809Z,1.40
2018-09-26T06:01:47.577Z,1.50
2018-09-26T06:06:42.457Z,1.10
2018-09-26T06:11:37.275Z,1.20
2018-09-26T06:16:32.110Z,1.63
2018-09-26T06:21:26.929Z,2.20
2018-09-26T06:26:21.714Z,2.37
2018-09-26T06:31:16.513Z,2.27
2018-09-26T06:36:11.287Z,2.30
2018-09-26T06:41:06.187Z,1.90
2018-09-26T06:46:00.967Z,1.67
2018-09-26T06:50:55.716Z,1.93
2018-09-26T06:55:50.490Z,1.87
2018-09-26T07:00:45.427Z,1.80
2018-09-26T07:05:40.241Z,2.03
2018-09-26T07:10:35.136Z,1.90
2018-09-26T07:15:29.897Z,2.03
2018-09-26T07:20:24.678Z,1.60
2018-09-26T07:25:19.942Z,1.90
2018-09-26T07:30:14.757Z,1.60
2018-09-26T07:35:09.618Z,1.80
2018-09-26T07:40:04.581Z,1.87
2018-09-26T07:44:59.415Z,1.80
2018-09-26T07:49:54.178Z,2.10
2018-09-26T07:54:48.956Z,2.20
2018-09-26T07:59:43.745Z,1.63
2018-09-26T08:04:38.530Z,1.93
2018-09-26T08:09:33.355Z,1.60
2018-09-26T08:14:28.152Z,2.00
2018-09-26T08:19:22.964Z,1.60
2018-09-26T08:24:17.785Z,1.77
2018-09-26T08:29:12.560Z,2.10
2018-09-26T08:34:07.503Z,2.00
2018-09-26T08:39:02.396Z,1.97
2018-09-26T08:43:57.243Z,2.17
2018-09-26T08:48:51.967Z,1.70
2018-09-26T08:53:47.101Z,2.00
2018-09-26T08:58:41.835Z,1.70
2018-09-26T09:03:36.627Z,2.27
2018-09-26T09:08:31.447Z,2.43
2018-09-26T09:13:26.230Z,1.67
2018-09-26T09:18:21.036Z,2.33
2018-09-26T09:23:15.797Z,2.23
2018-09-26T09:28:10.578Z,2.33
2018-09-26T09:33:05.393Z,2.13
2018-09-26T09:38:00.220Z,2.47
2018-09-26T09:42:55.014Z,2.60
2018-09-26T09:47:49.789Z,2.60
2018-09-26T09:52:44.605Z,2.50
2018-09-26T09:57:39.442Z,2.60
2018-09-26T10:02:34.406Z,2.90
2018-09-26T10:07:29.146Z,2.60
2018-09-26T10:12:24.056Z,3.17
2018-09-26T10:17:18.797Z,2.70
2018-09-26T10:22:13.527Z,3.00
2018-09-26T10:27:08.286Z,2.90
2018-09-26T10:32:02.989Z,2.97
2018-09-26T10:36:57.726Z,3.37
2018-09-26T10:41:52.434Z,3.03
2018-09-26T10:46:47.202Z,3.23
2018-09-26T10:51:42.450Z,3.40
2018-09-26T10:56:37.315Z,3.60
2018-09-26T11:01:31.988Z,3.03
2018-09-26T11:06:26.829Z,3.10
2018-09-26T11:11:21.538Z,2.80
2018-09-26T11:16:16.310Z,4.10
2018-09-26T11:21:11.041Z,2.97
2018-09-26T11:26:05.956Z,3.73
2018-09-26T11:31:00.696Z,4.03
2018-09-26T11:35:55.453Z,4.40
2018-09-26T11:40:50.224Z,4.47
2018-09-26T11:45:44.948Z,3.43
2018-09-26T11:50:39.729Z,3.77
2018-09-26T11:55:34.478Z,3.93
2018-09-26T12:00:29.230Z,4.30
2018-09-26T12:05:24.035Z,4.00
2018-09-26T12:10:18.802Z,4.23
2018-09-26T12:15:13.509Z,4.57
2018-09-26T12:20:08.371Z,4.80
2018-09-26T12:25:03.125Z,5.00
2018-09-26T12:29:57.836Z,5.00
2018-09-26T12:34:52.618Z,5.60
2018-09-26T12:39:47.300Z,5.17
2018-09-26T12:44:42.030Z,5.60
2018-09-26T12:49:36.751Z,5.90
2018-09-26T12:54:31.489Z,6.20
2018-09-26T12:59:26.209Z,5.97
2018-09-26T13:04:20.914Z,6.13
2018-09-26T13:09:15.692Z,6.30
2018-09-26T13:14:10.484Z,5.90
2018-09-26T13:19:05.292Z,6.80
2018-09-26T13:24:00.029Z,6.67
2018-09-26T13:28:54.738Z,5.57
2018-09-26T13:33:49.486Z,6.00
2018-09-26T13:38:44.269Z,6.53
2018-09-26T13:43:39.112Z,5.50
2018-09-26T13:48:33.866Z,6.20
2018-09-26T13:53:28.625Z,6.20
2018-09-26T13:58:23.412Z,6.30
2018-09-26T14:03:18.075Z,6.33
2018-09-26T14:08:12.870Z,5.47
2018-09-26T14:13:07.678Z,5.93
2018-09-26T14:18:02.406Z,5.40
2018-09-26T14:22:57.232Z,6.33
2018-09-26T14:27:51.943Z,5.90
2018-09-26T14:32:46.734Z,5.60
2018-09-26T14:37:41.491Z,6.30
2018-09-26T14:42:36.230Z,5.47
2018-09-26T14:47:30.993Z,6.07
2018-09-26T14:52:25.804Z,6.13
2018-09-26T14:57:20.546Z,6.50
2018-09-26T15:02:15.443Z,6.30
2018-09-26T15:07:10.165Z,7.17
2018-09-26T15:12:05.012Z,7.43
2018-09-26T15:16:59.819Z,7.10
2018-09-26T15:21:54.519Z,7.07
2018-09-26T15:26:49.400Z,8.07
2018-09-26T15:31:44.198Z,7.43
2018-09-26T15:36:39.335Z,7.60
2018-09-26T15:41:34.204Z,7.70
2018-09-26T15:46:28.988Z,7.30
2018-09-26T15:51:23.773Z,7.63
2018-09-26T15:56:18.586Z,7.20
2018-09-26T16:01:13.423Z,6.60
2018-09-26T16:06:08.391Z,8.20
2018-09-26T16:11:03.478Z,6.67
2018-09-26T16:15:58.277Z,7.53
2018-09-26T16:20:53.785Z,7.53
2018-09-26T16:25:48.542Z,7.67
2018-09-26T16:30:43.310Z,7.23
2018-09-26T16:35:38.049Z,7.63
2018-09-26T16:40:32.873Z,7.40
2018-09-26T16:45:28.749Z,7.77
2018-09-26T16:50:23.540Z,8.30
2018-09-26T16:55:18.297Z,7.50
2018-09-26T17:00:13.905Z,7.00
2018-09-26T17:05:08.775Z,8.10
2018-09-26T17:10:03.912Z,7.70
2018-09-26T17:14:59.306Z,7.50
2018-09-26T17:19:54.200Z,6.77
2018-09-26T17:24:49.124Z,6.00
2018-09-26T17:29:43.857Z,7.20
2018-09-26T17:34:38.669Z,7.50
2018-09-26T17:39:33.432Z,8.27
2018-09-26T17:44:28.234Z,8.13
2018-09-26T17:49:23.042Z,8.37
2018-09-26T17:54:17.762Z,8.43
2018-09-26T17:59:12.537Z,8.40
2018-09-26T18:04:07.371Z,9.67
2018-09-26T18:09:02.213Z,8.70
2018-09-26T18:13:56.960Z,8.80
2018-09-26T18:18:51.744Z,10.40
2018-09-26T18:23:46.453Z,9.00
2018-09-26T18:28:41.289Z,8.53
2018-09-26T18:33:36.228Z,8.33
2018-09-26T18:38:30.918Z,10.23
2018-09-26T18:43:25.777Z,10.10
2018-09-26T18:48:21.406Z,10.87
2018-09-26T18:53:17.123Z,12.47
2018-09-26T18:58:11.943Z,11.90
2018-09-26T19:03:06.815Z,10.17
2018-09-26T19:08:01.626Z,9.67
2018-09-26T19:12:56.476Z,9.00
2018-09-26T19:17:51.224Z,9.53
2018-09-26T19:22:46.021Z,9.43
2018-09-26T19:27:50.681Z,8.50
2018-09-26T19:32:54.863Z,9.33
2018-09-26T19:37:57.387Z,10.23
2018-09-26T19:42:57.919Z,9.30
2018-09-26T19:47:57.650Z,9.40
2018-09-26T19:52:53.294Z,9.73
2018-09-26T19:57:50.130Z,10.07
2018-09-26T20:02:46.475Z,8.13
2018-09-26T20:07:50.945Z,10.03
2018-09-26T20:15:24.371Z,9.43
2018-09-26T20:20:20.692Z,8.77
2018-09-26T20:30:24.513Z,9.37
2018-09-26T20:35:19.263Z,8.80
2018-09-26T20:40:14.039Z,9.20
2018-09-26T20:45:09.197Z,8.30
2018-09-26T20:50:05.129Z,8.90
2018-09-26T20:54:59.878Z,9.37
2018-09-26T20:59:54.635Z,8.13
2018-09-26T21:04:49.361Z,8.73
2018-09-26T21:09:44.254Z,8.63
2018-09-26T21:14:39.014Z,8.60
2018-09-26T21:19:33.762Z,8.30
2018-09-26T21:24:29.247Z,8.23
2018-09-26T21:29:24.036Z,8.27
2018-09-26T21:34:20.019Z,8.70
2018-09-26T21:39:14.795Z,7.60
2018-09-26T21:44:09.621Z,7.87
2018-09-26T21:49:04.411Z,7.67
2018-09-26T21:53:59.141Z,7.63
2018-09-26T21:58:53.919Z,7.90
2018-09-26T22:03:48.867Z,7.47
2018-09-26T22:08:43.836Z,8.00
2018-09-26T22:13:38.752Z,7.43
2018-09-26T22:18:33.644Z,7.80
2018-09-26T22:23:28.652Z,6.90
2018-09-26T22:28:23.447Z,7.53
2018-09-26T22:33:18.430Z,7.60
2018-09-26T22:38:13.420Z,8.40
2018-09-26T22:43:08.426Z,7.63
2018-09-26T22:48:03.421Z,7.73
2018-09-26T22:52:58.388Z,7.43
2018-09-26T22:57:53.418Z,6.97
2018-09-26T23:02:48.413Z,8.03
2018-09-26T23:07:43.345Z,7.83
2018-09-26T23:12:38.285Z,7.27
2018-09-26T23:17:33.218Z,7.60
2018-09-26T23:22:28.607Z,7.93
2018-09-26T23:27:23.558Z,7.43
2018-09-26T23:32:18.465Z,7.77
2018-09-26T23:37:13.375Z,8.03
2018-09-26T23:42:08.643Z,7.10
2018-09-26T23:47:03.567Z,7.00
2018-09-26T23:51:58.474Z,6.90
2018-09-26T23:56:53.387Z,7.43
